Time;durP1;ratioP1;P1;durP2;ratioP2;P2;SDS_P1;SDS_P2;PMS_P1;PMS_P2;Temp;Humidity;BMP_temperature;BMP_pressure;BME280_temperature;BME280_humidity;BME280_pressure;Samples;Min_cycle;Max_cycle;Signal;HPM_P1;HPM_P2
2023/09/18 00:01:59;;;;;;;;;;;20.70;99.90;;;;;;5042022;28;19933;-85
2023/09/18 00:04:25;;;;;;;;;;;20.60;99.90;;;;;;5041666;28;20320;-85
2023/09/18 00:06:52;;;;;;;;;;;20.60;99.90;;;;;;5040494;28;19932;-85
2023/09/18 00:09:19;;;;;;;;;;;20.60;99.90;;;;;;5041453;28;19925;-85
2023/09/18 00:11:45;;;;;;;;;;;20.60;99.90;;;;;;5041963;28;19925;-84
2023/09/18 00:14:12;;;;;;;;;;;20.60;99.90;;;;;;5038420;28;19926;-85
2023/09/18 00:16:39;;;;;;;;;;;20.60;99.90;;;;;;5042697;28;19925;-85
2023/09/18 00:19:23;;;;;;;;;;;20.50;99.90;;;;;;5042913;28;19972;-85
2023/09/18 00:21:52;;;;;;;;;;;20.60;99.90;;;;;;5044536;28;19960;-84
2023/09/18 00:24:19;;;;;;;;;;;20.60;99.90;;;;;;5043340;28;19925;-85
2023/09/18 00:26:47;;;;;;;;;;;20.60;99.90;;;;;;5043013;28;19932;-85
2023/09/18 00:29:14;;;;;;;;;;;20.60;99.90;;;;;;5043079;28;19925;-84
2023/09/18 00:31:41;;;;;;;;;;;20.70;99.90;;;;;;5042558;28;19947;-84
2023/09/18 00:34:08;;;;;;;;;;;20.70;99.90;;;;;;5046649;28;19935;-84
2023/09/18 00:36:34;;;;;;;;;;;20.70;99.90;;;;;;5047631;28;19925;-84
2023/09/18 00:39:01;;;;;;;;;;;20.80;99.90;;;;;;5047422;28;19979;-84
2023/09/18 00:41:28;;;;;;;;;;;20.70;99.90;;;;;;5047075;28;19948;-84
2023/09/18 00:43:55;;;;;;;;;;;20.70;99.90;;;;;;5046251;28;20217;-84
2023/09/18 00:46:22;;;;;;;;;;;20.80;99.90;;;;;;5048785;28;19965;-84
2023/09/18 00:48:49;;;;;;;;;;;20.70;99.90;;;;;;5049723;28;19971;-85
2023/09/18 00:51:17;;;;;;;;;;;20.70;99.90;;;;;;5051492;28;20035;-84
2023/09/18 00:53:44;;;;;;;;;;;20.70;99.90;;;;;;5053958;28;20020;-85
2023/09/18 00:56:11;;;;;;;;;;;20.60;99.90;;;;;;5053826;28;19925;-85
2023/09/18 00:58:40;;;;;;;;;;;20.70;99.90;;;;;;5051846;28;19913;-87
2023/09/18 01:01:08;;;;;;;;;;;20.60;99.90;;;;;;5049507;28;20027;-85
2023/09/18 01:03:35;;;;;;;;;;;20.70;99.90;;;;;;5040687;28;19925;-84
2023/09/18 01:06:03;;;;;;;;;;;20.80;99.90;;;;;;5041666;28;19968;-85
2023/09/18 01:08:33;;;;;;;;;;;20.70;99.90;;;;;;5044049;28;19925;-85
2023/09/18 01:11:05;;;;;;;;;;;20.70;99.90;;;;;;5048740;28;19925;-85
2023/09/18 01:13:36;;;;;;;;;;;20.80;99.90;;;;;;5047544;28;19929;-84
2023/09/18 01:16:10;;;;;;;;;;;20.70;99.90;;;;;;5045987;28;19925;-85
2023/09/18 01:18:36;;;;;;;;;;;20.70;99.90;;;;;;5044305;28;20017;-86
2023/09/18 01:21:03;;;;;;;;;;;20.70;99.90;;;;;;5039372;28;19964;-83
2023/09/18 01:23:30;;;;;;;;;;;20.80;99.90;;;;;;5044646;28;19959;-84
2023/09/18 01:25:56;;;;;;;;;;;20.70;99.90;;;;;;5043483;28;19979;-85
2023/09/18 01:28:23;;;;;;;;;;;20.70;99.90;;;;;;5043753;28;19925;-84
2023/09/18 01:30:50;;;;;;;;;;;20.70;99.90;;;;;;5043044;28;19925;-82
2023/09/18 01:33:17;;;;;;;;;;;20.70;99.90;;;;;;5041804;28;19997;-84
2023/09/18 01:35:44;;;;;;;;;;;20.80;99.90;;;;;;5042161;28;19932;-84
2023/09/18 01:38:11;;;;;;;;;;;20.70;99.90;;;;;;5038981;28;20080;-84
2023/09/18 01:40:38;;;;;;;;;;;20.70;99.90;;;;;;5040955;28;20008;-84
2023/09/18 01:43:05;;;;;;;;;;;20.70;99.90;;;;;;5041406;28;19971;-84
2023/09/18 01:45:32;;;;;;;;;;;20.70;99.90;;;;;;5041245;28;20431;-85
2023/09/18 01:47:59;;;;;;;;;;;20.70;99.90;;;;;;5056389;28;19932;-84
2023/09/18 01:50:25;;;;;;;;;;;20.60;99.90;;;;;;5041953;28;19925;-85
2023/09/18 01:52:52;;;;;;;;;;;20.70;99.90;;;;;;5041856;28;19929;-84
2023/09/18 01:55:19;;;;;;;;;;;20.70;99.90;;;;;;5042432;28;19964;-85
2023/09/18 01:57:45;;;;;;;;;;;20.60;99.90;;;;;;5042108;28;19960;-84
2023/09/18 02:00:13;;;;;;;;;;;20.60;99.90;;;;;;5041174;28;19925;-85
2023/09/18 02:02:40;;;;;;;;;;;20.60;99.90;;;;;;5045647;28;19925;-85
2023/09/18 02:05:27;;;;;;;;;;;20.60;99.90;;;;;;5044966;28;19925;-84
2023/09/18 02:07:54;;;;;;;;;;;20.60;99.90;;;;;;5045259;28;19925;-85
2023/09/18 02:10:21;;;;;;;;;;;20.60;99.90;;;;;;5044444;28;19933;-85
2023/09/18 02:12:47;;;;;;;;;;;20.70;99.90;;;;;;5044668;28;19929;-84
2023/09/18 02:15:16;;;;;;;;;;;20.60;99.90;;;;;;5040906;28;19933;-84
2023/09/18 02:17:43;;;;;;;;;;;20.70;99.90;;;;;;5044420;28;19925;-85
2023/09/18 02:20:13;;;;;;;;;;;20.60;99.90;;;;;;5042241;28;19952;-85
2023/09/18 02:22:39;;;;;;;;;;;20.60;99.90;;;;;;5041497;28;19932;-85
2023/09/18 02:25:07;;;;;;;;;;;20.50;99.90;;;;;;5031999;28;19932;-84
2023/09/18 02:27:34;;;;;;;;;;;20.50;99.90;;;;;;5042358;28;19929;-84
2023/09/18 02:30:00;;;;;;;;;;;20.40;99.90;;;;;;5040795;28;19975;-84
2023/09/18 02:32:27;;;;;;;;;;;20.40;99.90;;;;;;5041853;28;19925;-85
2023/09/18 02:34:54;;;;;;;;;;;20.40;99.90;;;;;;5041867;28;19925;-84
2023/09/18 02:37:21;;;;;;;;;;;20.40;99.90;;;;;;5041113;28;19929;-84
2023/09/18 02:39:48;;;;;;;;;;;20.40;99.90;;;;;;5041714;28;19929;-85
2023/09/18 02:42:15;;;;;;;;;;;20.40;99.90;;;;;;5041468;28;19932;-84
2023/09/18 02:44:42;;;;;;;;;;;20.30;99.90;;;;;;5041067;28;19925;-83
2023/09/18 02:47:08;;;;;;;;;;;20.30;99.90;;;;;;5041364;28;19925;-83
2023/09/18 02:49:35;;;;;;;;;;;20.30;99.90;;;;;;5040230;28;19928;-84
2023/09/18 02:52:03;;;;;;;;;;;20.30;99.90;;;;;;5041453;28;19948;-85
2023/09/18 02:54:29;;;;;;;;;;;20.30;99.90;;;;;;5041887;28;19931;-84
2023/09/18 02:56:56;;;;;;;;;;;20.20;99.90;;;;;;5045578;28;19964;-85
2023/09/18 02:59:22;;;;;;;;;;;20.10;99.90;;;;;;5046420;28;19929;-84
2023/09/18 03:01:49;;;;;;;;;;;20.20;99.90;;;;;;5045859;28;19925;-84
2023/09/18 03:04:16;;;;;;;;;;;20.00;99.90;;;;;;5043246;28;19925;-85
2023/09/18 03:06:43;;;;;;;;;;;20.00;99.90;;;;;;5042368;28;19926;-85
2023/09/18 03:09:09;;;;;;;;;;;20.00;99.90;;;;;;5043976;28;19948;-84
2023/09/18 03:11:36;;;;;;;;;;;19.90;99.90;;;;;;5042244;28;19948;-84
2023/09/18 03:14:03;;;;;;;;;;;20.00;99.90;;;;;;5042316;28;19933;-84
2023/09/18 03:16:32;;;;;;;;;;;20.00;99.90;;;;;;5041673;28;19925;-83
2023/09/18 03:18:59;;;;;;;;;;;20.00;99.90;;;;;;5041197;28;19933;-84
2023/09/18 03:21:26;;;;;;;;;;;20.00;99.90;;;;;;5041995;28;19971;-84
2023/09/18 03:23:52;;;;;;;;;;;20.00;99.90;;;;;;5037178;28;19929;-84
2023/09/18 03:26:19;;;;;;;;;;;20.00;99.90;;;;;;5042837;28;20375;-84
2023/09/18 03:28:46;;;;;;;;;;;20.10;99.90;;;;;;5042636;28;19985;-85
2023/09/18 03:31:13;;;;;;;;;;;20.10;99.90;;;;;;5040904;28;19929;-85
2023/09/18 03:33:39;;;;;;;;;;;20.10;99.90;;;;;;5042237;28;20404;-85
2023/09/18 03:36:07;;;;;;;;;;;20.10;99.90;;;;;;5042522;28;19951;-84
2023/09/18 03:38:35;;;;;;;;;;;20.10;99.90;;;;;;5043531;28;19929;-86
2023/09/18 03:41:02;;;;;;;;;;;20.10;99.90;;;;;;5044043;28;19929;-84
2023/09/18 03:43:29;;;;;;;;;;;20.10;99.90;;;;;;5044841;28;19925;-84
2023/09/18 03:46:02;;;;;;;;;;;20.10;99.90;;;;;;5043620;28;19962;-85
2023/09/18 03:48:30;;;;;;;;;;;20.00;99.90;;;;;;5045733;28;20012;-84
2023/09/18 03:50:57;;;;;;;;;;;20.00;99.90;;;;;;5045784;28;19925;-85
2023/09/18 03:53:24;;;;;;;;;;;20.10;99.90;;;;;;5049079;28;19947;-84
2023/09/18 03:55:50;;;;;;;;;;;20.10;99.90;;;;;;5045922;28;20292;-85
2023/09/18 03:58:19;;;;;;;;;;;20.00;99.90;;;;;;5045897;28;19992;-84
2023/09/18 04:00:46;;;;;;;;;;;20.00;99.90;;;;;;5042267;28;19952;-88
2023/09/18 04:03:13;;;;;;;;;;;20.00;99.90;;;;;;5043655;28;19929;-85
2023/09/18 04:05:39;;;;;;;;;;;20.00;99.90;;;;;;5042249;28;19983;-83
2023/09/18 04:08:06;;;;;;;;;;;20.00;99.90;;;;;;5045035;28;20016;-86
2023/09/18 04:10:33;;;;;;;;;;;20.00;99.90;;;;;;5047914;28;19947;-84
2023/09/18 04:13:00;;;;;;;;;;;20.00;99.90;;;;;;5047071;28;20332;-84
2023/09/18 04:15:27;;;;;;;;;;;19.90;99.90;;;;;;5069377;22;19964;-79
2023/09/18 04:17:54;;;;;;;;;;;20.00;99.90;;;;;;5063609;28;19956;-80
2023/09/18 04:20:21;;;;;;;;;;;20.00;99.90;;;;;;5067810;28;20011;-79
2023/09/18 04:22:51;;;;;;;;;;;20.00;99.90;;;;;;5062030;28;19924;-80
2023/09/18 04:25:19;;;;;;;;;;;20.00;99.90;;;;;;5068327;28;19932;-79
2023/09/18 04:27:49;;;;;;;;;;;20.00;99.90;;;;;;5064922;28;19931;-79
2023/09/18 04:30:19;;;;;;;;;;;20.00;99.90;;;;;;5054133;28;19925;-79
2023/09/18 04:32:46;;;;;;;;;;;20.00;99.90;;;;;;5052944;28;19925;-79
2023/09/18 04:35:13;;;;;;;;;;;19.90;99.90;;;;;;5065212;28;19993;-79
2023/09/18 04:37:39;;;;;;;;;;;20.00;99.90;;;;;;5059558;28;19935;-79
2023/09/18 04:40:09;;;;;;;;;;;20.00;99.90;;;;;;5068573;28;20392;-79
2023/09/18 04:42:38;;;;;;;;;;;20.00;99.90;;;;;;5063600;28;19995;-80
2023/09/18 04:45:05;;;;;;;;;;;20.00;99.90;;;;;;5056788;28;19924;-80
2023/09/18 04:47:32;;;;;;;;;;;20.00;99.90;;;;;;5062277;28;19931;-80
2023/09/18 04:49:58;;;;;;;;;;;20.00;99.90;;;;;;5065497;28;20319;-80
2023/09/18 04:52:25;;;;;;;;;;;20.00;99.90;;;;;;5061478;28;19929;-80
2023/09/18 04:54:51;;;;;;;;;;;20.00;99.90;;;;;;5060394;28;19967;-80
2023/09/18 04:57:18;;;;;;;;;;;20.00;99.90;;;;;;5065265;28;20327;-80
2023/09/18 04:59:45;;;;;;;;;;;20.00;99.90;;;;;;5039741;28;20299;-80
2023/09/18 05:02:12;;;;;;;;;;;20.00;99.90;;;;;;5062207;28;19925;-80
2023/09/18 05:04:39;;;;;;;;;;;20.00;99.90;;;;;;5066965;28;20016;-80
2023/09/18 05:07:06;;;;;;;;;;;20.00;99.90;;;;;;5044523;28;20416;-81
2023/09/18 05:09:34;;;;;;;;;;;20.00;99.90;;;;;;5060215;28;20384;-80
2023/09/18 05:12:03;;;;;;;;;;;20.00;99.90;;;;;;5065290;28;19936;-80
2023/09/18 05:14:31;;;;;;;;;;;20.00;99.90;;;;;;5058446;28;19931;-80
2023/09/18 05:16:57;;;;;;;;;;;20.00;99.90;;;;;;5060943;28;19933;-80
2023/09/18 05:19:24;;;;;;;;;;;20.00;99.90;;;;;;5067817;28;20350;-80
2023/09/18 05:21:51;;;;;;;;;;;20.00;99.90;;;;;;5059903;28;19925;-80
2023/09/18 05:24:26;;;;;;;;;;;20.00;99.90;;;;;;5058640;28;19925;-80
2023/09/18 05:26:53;;;;;;;;;;;20.00;99.90;;;;;;5053237;28;19925;-80
2023/09/18 05:29:20;;;;;;;;;;;20.00;99.90;;;;;;5058098;28;19925;-80
2023/09/18 05:31:46;;;;;;;;;;;20.00;99.90;;;;;;5062893;28;19931;-80
2023/09/18 05:34:13;;;;;;;;;;;20.00;99.90;;;;;;5068633;28;19937;-80
2023/09/18 05:36:40;;;;;;;;;;;20.00;99.90;;;;;;5062780;28;20367;-80
2023/09/18 05:39:12;;;;;;;;;;;20.00;99.90;;;;;;5048153;28;19982;-80
2023/09/18 05:41:39;;;;;;;;;;;20.00;99.90;;;;;;5067926;28;19947;-79
2023/09/18 05:44:07;;;;;;;;;;;20.00;99.90;;;;;;5061854;28;19977;-80
2023/09/18 05:46:34;;;;;;;;;;;20.00;99.90;;;;;;5064663;28;19960;-80
2023/09/18 05:49:01;;;;;;;;;;;20.00;99.90;;;;;;5075894;28;19928;-80
2023/09/18 05:51:27;;;;;;;;;;;20.00;99.90;;;;;;5067371;28;19994;-80
2023/09/18 05:53:54;;;;;;;;;;;20.00;99.90;;;;;;5058221;28;19970;-80
2023/09/18 05:56:21;;;;;;;;;;;20.00;99.90;;;;;;5065083;28;19968;-80
2023/09/18 05:58:47;;;;;;;;;;;20.00;99.90;;;;;;5063179;28;19928;-80
2023/09/18 06:01:14;;;;;;;;;;;20.00;99.90;;;;;;5056211;28;20431;-80
2023/09/18 06:03:41;;;;;;;;;;;20.00;99.90;;;;;;5053979;28;19925;-80
2023/09/18 06:06:08;;;;;;;;;;;19.90;99.90;;;;;;5062242;28;19928;-81
2023/09/18 06:08:35;;;;;;;;;;;19.90;99.90;;;;;;5055759;28;19925;-80
2023/09/18 06:11:01;;;;;;;;;;;19.90;99.90;;;;;;5063795;28;20015;-80
2023/09/18 06:13:28;;;;;;;;;;;19.90;99.90;;;;;;5061688;28;19981;-80
2023/09/18 06:15:55;;;;;;;;;;;19.90;99.90;;;;;;5054777;28;19951;-80
2023/09/18 06:18:22;;;;;;;;;;;19.90;99.90;;;;;;5063739;28;19968;-80
2023/09/18 06:20:49;;;;;;;;;;;19.90;99.90;;;;;;5061282;28;20226;-80
2023/09/18 06:23:15;;;;;;;;;;;19.80;99.90;;;;;;5051486;28;20027;-81
2023/09/18 06:25:42;;;;;;;;;;;19.80;99.90;;;;;;5050377;28;19925;-80
2023/09/18 06:28:09;;;;;;;;;;;19.80;99.90;;;;;;5059898;28;19971;-81
2023/09/18 06:30:36;;;;;;;;;;;19.70;99.90;;;;;;5058052;28;19960;-81
2023/09/18 06:33:03;;;;;;;;;;;19.60;99.90;;;;;;5062032;28;19930;-80
2023/09/18 06:35:30;;;;;;;;;;;19.70;99.90;;;;;;5055081;28;20020;-80
2023/09/18 06:37:58;;;;;;;;;;;19.70;99.90;;;;;;5057156;28;19963;-80
2023/09/18 06:40:25;;;;;;;;;;;19.80;99.90;;;;;;5053950;28;19925;-80
2023/09/18 06:42:57;;;;;;;;;;;19.80;99.90;;;;;;5065652;28;19952;-80
2023/09/18 06:45:24;;;;;;;;;;;19.80;99.90;;;;;;5058624;28;20419;-80
2023/09/18 06:47:51;;;;;;;;;;;19.80;99.90;;;;;;5057391;28;19946;-80
2023/09/18 06:50:18;;;;;;;;;;;19.80;99.90;;;;;;5061939;28;20152;-81
2023/09/18 06:52:46;;;;;;;;;;;19.80;99.90;;;;;;5058861;28;19925;-80
2023/09/18 06:55:13;;;;;;;;;;;19.80;99.90;;;;;;5057115;28;19924;-80
2023/09/18 06:57:41;;;;;;;;;;;19.80;99.90;;;;;;5066920;28;20277;-80
2023/09/18 07:00:08;;;;;;;;;;;19.80;99.90;;;;;;5059648;28;20443;-80
2023/09/18 07:02:34;;;;;;;;;;;19.70;99.90;;;;;;5056563;28;19925;-80
2023/09/18 07:05:01;;;;;;;;;;;19.70;99.90;;;;;;5063885;28;19932;-80
2023/09/18 07:07:28;;;;;;;;;;;19.70;99.90;;;;;;5058861;28;19933;-80
2023/09/18 07:09:55;;;;;;;;;;;19.70;99.90;;;;;;5057463;28;19924;-81
2023/09/18 07:12:24;;;;;;;;;;;19.70;99.90;;;;;;5066675;28;20456;-81
2023/09/18 07:14:51;;;;;;;;;;;19.70;99.90;;;;;;5059654;28;19928;-80
2023/09/18 07:17:17;;;;;;;;;;;19.70;99.90;;;;;;5038033;28;19933;-80
2023/09/18 07:19:44;;;;;;;;;;;19.70;99.90;;;;;;5053351;28;19924;-80
2023/09/18 07:22:11;;;;;;;;;;;19.60;99.90;;;;;;5060789;28;19924;-80
2023/09/18 07:24:40;;;;;;;;;;;19.60;99.90;;;;;;5057218;28;20417;-81
2023/09/18 07:27:07;;;;;;;;;;;19.60;99.90;;;;;;5061659;28;19931;-80
2023/09/18 07:29:34;;;;;;;;;;;19.60;99.90;;;;;;5062687;28;20380;-80
2023/09/18 07:32:01;;;;;;;;;;;19.70;99.90;;;;;;5053719;28;19932;-80
2023/09/18 07:34:28;;;;;;;;;;;19.70;99.90;;;;;;5066141;28;19983;-80
2023/09/18 07:36:56;;;;;;;;;;;19.60;99.90;;;;;;5063186;28;19925;-81
2023/09/18 07:39:23;;;;;;;;;;;19.70;99.90;;;;;;5053289;28;20388;-80
2023/09/18 07:41:50;;;;;;;;;;;19.70;99.90;;;;;;5063872;28;19974;-80
2023/09/18 07:44:20;;;;;;;;;;;19.70;99.90;;;;;;5068576;28;19975;-80
2023/09/18 07:46:47;;;;;;;;;;;19.70;99.90;;;;;;5048581;28;19928;-80
2023/09/18 07:49:14;;;;;;;;;;;19.60;99.90;;;;;;5069826;28;19967;-80
2023/09/18 07:51:41;;;;;;;;;;;19.60;99.90;;;;;;5067240;28;19924;-80
2023/09/18 07:54:07;;;;;;;;;;;19.60;99.90;;;;;;5060875;28;19978;-80
2023/09/18 07:56:36;;;;;;;;;;;19.60;99.90;;;;;;5068722;28;19978;-80
2023/09/18 07:59:03;;;;;;;;;;;19.60;99.90;;;;;;5066740;28;19924;-80
2023/09/18 08:01:31;;;;;;;;;;;19.60;99.90;;;;;;5060789;28;19925;-80
2023/09/18 08:04:00;;;;;;;;;;;19.70;99.90;;;;;;5068601;28;19924;-81
2023/09/18 08:06:28;;;;;;;;;;;19.60;99.90;;;;;;5068259;28;19933;-80
2023/09/18 08:08:55;;;;;;;;;;;19.60;99.90;;;;;;5059655;28;19925;-80
2023/09/18 08:11:22;;;;;;;;;;;19.60;99.90;;;;;;5067964;28;19924;-80
2023/09/18 08:13:49;;;;;;;;;;;19.60;99.90;;;;;;5069915;28;19931;-80
2023/09/18 08:16:17;;;;;;;;;;;19.70;99.90;;;;;;5062967;28;19971;-80
2023/09/18 08:18:44;;;;;;;;;;;19.80;99.90;;;;;;5066278;28;19924;-81
2023/09/18 08:21:13;;;;;;;;;;;19.80;99.90;;;;;;5070246;28;19959;-81
2023/09/18 08:23:39;;;;;;;;;;;19.80;99.90;;;;;;5064708;28;19931;-80
2023/09/18 08:26:07;;;;;;;;;;;19.80;99.90;;;;;;5065873;28;19955;-80
2023/09/18 08:28:36;;;;;;;;;;;19.80;99.90;;;;;;5063057;28;19988;-80
2023/09/18 08:31:03;;;;;;;;;;;19.80;99.90;;;;;;5047590;28;20356;-81
2023/09/18 08:33:30;;;;;;;;;;;19.80;99.90;;;;;;5063570;28;19928;-80
2023/09/18 08:35:57;;;;;;;;;;;19.70;99.90;;;;;;5072771;28;19952;-80
2023/09/18 08:38:24;;;;;;;;;;;19.80;99.90;;;;;;5063915;28;19932;-80
2023/09/18 08:40:53;;;;;;;;;;;19.60;99.90;;;;;;5064721;28;19955;-81
2023/09/18 08:43:21;;;;;;;;;;;19.70;99.90;;;;;;5049058;28;19931;-80
2023/09/18 08:45:52;;;;;;;;;;;19.60;99.90;;;;;;5063027;28;19928;-80
2023/09/18 08:48:19;;;;;;;;;;;19.50;99.90;;;;;;5062533;28;20443;-80
2023/09/18 08:50:48;;;;;;;;;;;19.60;99.90;;;;;;5070709;28;19955;-80
2023/09/18 08:53:14;;;;;;;;;;;19.60;99.90;;;;;;5060095;28;19991;-80
2023/09/18 08:55:41;;;;;;;;;;;19.60;99.90;;;;;;5060945;28;19924;-81
2023/09/18 08:58:08;;;;;;;;;;;19.50;99.90;;;;;;5066517;28;20360;-80
2023/09/18 09:00:36;;;;;;;;;;;19.60;99.90;;;;;;5060676;28;20024;-81
2023/09/18 09:03:04;;;;;;;;;;;19.60;99.90;;;;;;5059352;28;19924;-80
2023/09/18 09:05:31;;;;;;;;;;;19.60;99.90;;;;;;5068388;28;20012;-80
2023/09/18 09:07:58;;;;;;;;;;;19.70;99.90;;;;;;5063580;28;19931;-81
2023/09/18 09:10:25;;;;;;;;;;;19.70;99.90;;;;;;5057759;28;20303;-80
2023/09/18 09:12:59;;;;;;;;;;;19.70;99.90;;;;;;5068634;28;19928;-80
2023/09/18 09:15:31;;;;;;;;;;;19.60;99.90;;;;;;5062402;28;20390;-80
2023/09/18 09:18:05;;;;;;;;;;;19.60;99.90;;;;;;5054679;28;20486;-81
2023/09/18 09:20:33;;;;;;;;;;;19.70;99.90;;;;;;5069718;28;20032;-81
2023/09/18 09:23:00;;;;;;;;;;;19.80;99.90;;;;;;5062264;28;20617;-80
2023/09/18 09:25:31;;;;;;;;;;;19.80;99.90;;;;;;5058164;28;19928;-81
2023/09/18 09:27:58;;;;;;;;;;;19.90;99.90;;;;;;5066785;28;20370;-81
2023/09/18 09:30:26;;;;;;;;;;;19.90;99.90;;;;;;5061973;28;20437;-80
2023/09/18 09:32:54;;;;;;;;;;;20.00;99.90;;;;;;5053942;28;20419;-81
2023/09/18 09:35:27;;;;;;;;;;;20.00;99.90;;;;;;5067887;28;19931;-79
2023/09/18 09:37:56;;;;;;;;;;;20.00;99.90;;;;;;5064482;28;19931;-81
2023/09/18 09:40:23;;;;;;;;;;;20.00;99.90;;;;;;5058045;28;19975;-80
2023/09/18 09:42:51;;;;;;;;;;;20.00;99.90;;;;;;5067347;28;19924;-81
2023/09/18 09:45:18;;;;;;;;;;;20.00;99.90;;;;;;5061813;28;20464;-81
2023/09/18 09:47:45;;;;;;;;;;;20.00;99.90;;;;;;5055378;28;20285;-81
2023/09/18 09:50:13;;;;;;;;;;;20.00;99.90;;;;;;5068261;28;19924;-80
2023/09/18 09:52:42;;;;;;;;;;;20.10;99.90;;;;;;5065683;28;20007;-80
2023/09/18 09:55:29;;;;;;;;;;;20.10;99.90;;;;;;5057875;28;19932;-81
2023/09/18 09:57:59;;;;;;;;;;;20.00;99.90;;;;;;5068841;28;19924;-81
2023/09/18 10:00:40;;;;;;;;;;;20.00;99.90;;;;;;5061073;28;20383;-81
2023/09/18 10:03:08;;;;;;;;;;;20.00;99.90;;;;;;5054632;28;19972;-81
2023/09/18 10:05:36;;;;;;;;;;;20.00;99.90;;;;;;5067295;28;20399;-81
2023/09/18 10:08:12;;;;;;;;;;;20.10;99.90;;;;;;5064466;28;19931;-80
2023/09/18 10:10:49;;;;;;;;;;;20.10;99.90;;;;;;5051629;28;19933;-80
2023/09/18 10:13:28;;;;;;;;;;;20.20;99.90;;;;;;5050308;28;19931;-81
2023/09/18 10:15:56;;;;;;;;;;;20.20;99.90;;;;;;5055230;28;20326;-80
2023/09/18 10:18:27;;;;;;;;;;;20.20;99.90;;;;;;5055841;28;19978;-80
2023/09/18 10:21:02;;;;;;;;;;;20.30;99.90;;;;;;5071620;28;19924;-81
2023/09/18 10:23:44;;;;;;;;;;;20.30;99.90;;;;;;5060883;28;19974;-80
2023/09/18 10:26:15;;;;;;;;;;;20.30;99.90;;;;;;5055608;28;20360;-80
2023/09/18 10:28:43;;;;;;;;;;;20.40;99.90;;;;;;5067495;28;19925;-81
2023/09/18 10:31:11;;;;;;;;;;;20.50;99.90;;;;;;5060234;28;20440;-81
2023/09/18 10:33:39;;;;;;;;;;;20.50;99.90;;;;;;5057674;28;19925;-80
2023/09/18 10:36:06;;;;;;;;;;;20.70;99.90;;;;;;5067563;28;20388;-80
2023/09/18 10:38:34;;;;;;;;;;;20.70;99.90;;;;;;5061080;28;19924;-80
2023/09/18 10:41:01;;;;;;;;;;;20.80;99.90;;;;;;5053013;28;19924;-81
2023/09/18 10:43:28;;;;;;;;;;;20.90;99.90;;;;;;5067280;28;19970;-80
2023/09/18 10:45:55;;;;;;;;;;;21.00;99.90;;;;;;5056898;28;20434;-81
2023/09/18 10:48:22;;;;;;;;;;;21.10;99.90;;;;;;5056234;28;19928;-80
2023/09/18 10:50:50;;;;;;;;;;;21.10;99.90;;;;;;5068605;28;19983;-79
2023/09/18 10:53:17;;;;;;;;;;;21.20;99.90;;;;;;5062286;28;19972;-80
2023/09/18 10:55:44;;;;;;;;;;;21.30;99.90;;;;;;5050512;28;19925;-81
2023/09/18 10:58:11;;;;;;;;;;;21.40;99.90;;;;;;5065757;28;20046;-81
2023/09/18 11:00:41;;;;;;;;;;;21.40;99.90;;;;;;5063679;28;19925;-81
2023/09/18 11:03:13;;;;;;;;;;;21.50;99.90;;;;;;5057610;28;19931;-80
2023/09/18 11:05:40;;;;;;;;;;;21.50;99.90;;;;;;5058155;28;20017;-80
2023/09/18 11:08:26;;;;;;;;;;;21.50;99.90;;;;;;5063432;28;19924;-81
2023/09/18 11:11:04;;;;;;;;;;;21.60;99.90;;;;;;5052498;28;20299;-80
2023/09/18 11:13:34;;;;;;;;;;;21.70;99.90;;;;;;5064644;28;20379;-81
2023/09/18 11:16:03;;;;;;;;;;;21.70;99.90;;;;;;5062228;28;19925;-81
2023/09/18 11:18:33;;;;;;;;;;;21.80;99.90;;;;;;5051686;28;19929;-81
2023/09/18 11:21:06;;;;;;;;;;;21.90;99.90;;;;;;5062956;28;19928;-81
2023/09/18 11:23:35;;;;;;;;;;;22.00;99.90;;;;;;5059566;28;19925;-81
2023/09/18 11:26:07;;;;;;;;;;;22.00;99.90;;;;;;5053969;28;19925;-80
2023/09/18 11:28:33;;;;;;;;;;;22.10;99.90;;;;;;5051852;28;19928;-81
2023/09/18 11:31:01;;;;;;;;;;;22.20;99.90;;;;;;5045879;28;20362;-81
2023/09/18 11:33:32;;;;;;;;;;;22.30;99.90;;;;;;5053355;28;19925;-81
2023/09/18 11:36:08;;;;;;;;;;;22.30;99.90;;;;;;5063262;28;20403;-81
2023/09/18 11:38:35;;;;;;;;;;;22.40;99.90;;;;;;5060700;28;20346;-81
2023/09/18 11:41:22;;;;;;;;;;;22.40;99.90;;;;;;5052229;28;20562;-80
2023/09/18 11:43:49;;;;;;;;;;;22.50;99.90;;;;;;5067237;28;20434;-81
2023/09/18 11:46:20;;;;;;;;;;;22.50;99.90;;;;;;5062177;28;20334;-81
2023/09/18 11:48:50;;;;;;;;;;;22.50;99.90;;;;;;5052523;28;19925;-80
2023/09/18 11:51:21;;;;;;;;;;;22.50;99.90;;;;;;5066652;28;19925;-81
2023/09/18 11:53:49;;;;;;;;;;;22.60;99.90;;;;;;5058503;28;20004;-81
2023/09/18 11:56:17;;;;;;;;;;;22.60;99.90;;;;;;5054316;28;20300;-81
2023/09/18 11:58:45;;;;;;;;;;;22.60;99.90;;;;;;5068150;28;19971;-80
2023/09/18 12:01:15;;;;;;;;;;;22.60;99.90;;;;;;5062177;28;19928;-81
2023/09/18 12:03:42;;;;;;;;;;;22.70;99.90;;;;;;5053704;28;19976;-81
2023/09/18 12:06:12;;;;;;;;;;;22.70;99.90;;;;;;5061319;28;20058;-80
2023/09/18 12:08:40;;;;;;;;;;;22.70;99.90;;;;;;5059434;28;19933;-81
2023/09/18 12:11:07;;;;;;;;;;;22.80;99.90;;;;;;5040295;28;19925;-81
2023/09/18 12:13:34;;;;;;;;;;;22.70;99.90;;;;;;5067362;28;19968;-80
2023/09/18 12:16:04;;;;;;;;;;;22.70;99.90;;;;;;5062884;28;19925;-81
2023/09/18 12:18:32;;;;;;;;;;;22.70;99.90;;;;;;5053539;28;19976;-81
2023/09/18 12:21:04;;;;;;;;;;;22.70;99.90;;;;;;5060592;28;19929;-81
2023/09/18 12:23:37;;;;;;;;;;;22.80;99.90;;;;;;5062917;28;20398;-80
2023/09/18 12:26:03;;;;;;;;;;;22.80;99.90;;;;;;5053689;28;20020;-81
2023/09/18 12:28:30;;;;;;;;;;;22.90;99.90;;;;;;5067069;28;20346;-81
2023/09/18 12:30:58;;;;;;;;;;;23.00;99.90;;;;;;5049687;28;19947;-81
2023/09/18 12:33:25;;;;;;;;;;;23.10;99.90;;;;;;5061703;28;19925;-81
2023/09/18 12:35:52;;;;;;;;;;;23.20;99.90;;;;;;5061361;28;20378;-80
2023/09/18 12:38:22;;;;;;;;;;;23.20;99.90;;;;;;5051612;28;20312;-80
2023/09/18 12:40:49;;;;;;;;;;;23.30;99.90;;;;;;5059639;28;19929;-81
2023/09/18 12:43:17;;;;;;;;;;;23.30;99.90;;;;;;5064163;28;19928;-81
2023/09/18 12:45:45;;;;;;;;;;;23.40;99.90;;;;;;5066005;28;19925;-80
2023/09/18 12:48:12;;;;;;;;;;;23.40;99.90;;;;;;5059936;28;19929;-80
2023/09/18 12:50:39;;;;;;;;;;;23.50;99.90;;;;;;5061254;28;19979;-81
2023/09/18 12:53:13;;;;;;;;;;;23.50;99.90;;;;;;5062084;28;19958;-81
2023/09/18 12:55:40;;;;;;;;;;;23.50;99.90;;;;;;5059866;28;19974;-81
2023/09/18 12:58:10;;;;;;;;;;;23.50;99.90;;;;;;5062598;28;19947;-81
2023/09/18 13:00:36;;;;;;;;;;;23.60;99.90;;;;;;5047868;28;19925;-81
2023/09/18 13:03:04;;;;;;;;;;;23.60;99.90;;;;;;5062346;28;19979;-81
2023/09/18 13:05:34;;;;;;;;;;;23.60;99.90;;;;;;5059712;28;19925;-82
2023/09/18 13:08:02;;;;;;;;;;;23.60;99.90;;;;;;5068448;28;19924;-81
2023/09/18 13:10:29;;;;;;;;;;;23.60;99.90;;;;;;5062237;28;19976;-81
2023/09/18 13:12:56;;;;;;;;;;;23.70;99.90;;;;;;5057151;28;20400;-81
2023/09/18 13:15:29;;;;;;;;;;;23.60;99.90;;;;;;5068218;28;19924;-81
2023/09/18 13:17:58;;;;;;;;;;;23.60;99.90;;;;;;5061078;28;19928;-81
2023/09/18 13:20:26;;;;;;;;;;;23.60;99.90;;;;;;5059512;28;19924;-80
2023/09/18 13:22:54;;;;;;;;;;;23.60;99.90;;;;;;5067867;28;19951;-81
2023/09/18 13:25:22;;;;;;;;;;;23.70;99.90;;;;;;5062607;28;19976;-81
2023/09/18 13:27:50;;;;;;;;;;;23.70;99.90;;;;;;5058926;28;19933;-81
2023/09/18 13:30:17;;;;;;;;;;;23.70;99.90;;;;;;5068953;28;19989;-81
2023/09/18 13:32:44;;;;;;;;;;;23.70;99.90;;;;;;5062227;28;19924;-81
2023/09/18 13:35:14;;;;;;;;;;;23.70;99.90;;;;;;5058177;28;19931;-81
2023/09/18 13:37:41;;;;;;;;;;;23.60;99.90;;;;;;5069817;28;19924;-81
2023/09/18 13:40:08;;;;;;;;;;;23.60;99.90;;;;;;5063819;28;19925;-81
2023/09/18 13:42:35;;;;;;;;;;;23.70;99.90;;;;;;5056318;28;20008;-81
2023/09/18 13:45:09;;;;;;;;;;;23.70;99.90;;;;;;5066640;28;19975;-81
2023/09/18 13:47:36;;;;;;;;;;;23.80;99.90;;;;;;5062061;28;19983;-81
2023/09/18 13:50:04;;;;;;;;;;;23.70;99.90;;;;;;5057977;28;20263;-80
2023/09/18 13:52:32;;;;;;;;;;;23.80;99.90;;;;;;5071726;28;19929;-81
2023/09/18 13:54:59;;;;;;;;;;;23.80;99.90;;;;;;5067130;28;19928;-80
2023/09/18 13:57:26;;;;;;;;;;;23.80;99.90;;;;;;5053496;28;20342;-81
2023/09/18 13:59:53;;;;;;;;;;;23.80;99.90;;;;;;5065533;28;19924;-81
2023/09/18 14:02:20;;;;;;;;;;;23.70;99.90;;;;;;5062782;28;20012;-81
2023/09/18 14:04:47;;;;;;;;;;;23.70;99.90;;;;;;5054401;28;20016;-80
2023/09/18 14:07:14;;;;;;;;;;;23.60;99.90;;;;;;5065778;28;19976;-81
2023/09/18 14:09:40;;;;;;;;;;;23.60;99.90;;;;;;5064717;28;19925;-81
2023/09/18 14:12:07;;;;;;;;;;;23.50;99.90;;;;;;5052563;28;19925;-81
2023/09/18 14:14:35;;;;;;;;;;;23.50;99.90;;;;;;5064776;28;19985;-80
2023/09/18 14:17:03;;;;;;;;;;;23.50;99.90;;;;;;5063376;28;20387;-81
2023/09/18 14:19:30;;;;;;;;;;;23.50;99.90;;;;;;5057279;28;19964;-81
2023/09/18 14:21:57;;;;;;;;;;;23.50;99.90;;;;;;5063720;28;19929;-80